Lancaster, TX

4:03 AM CDT on July 21, 2017 (GMT -0500)
Lancaster

Weather History for KLNC - March, 2013

Change the Weather History Date:

Friday, March 29, 2013

  Actual Average (KRBD) Record (KRBD)
Temperature  
Mean Temperature 65 °F -  
Max Temperature 73 °F 68 °F 82 °F (1997)
Min Temperature 57 °F 50 °F 37 °F (2009)
Growing Degree Days 15 (Base 50)    
Moisture  
Dew Point 56 °F    
Average Humidity 72    
Maximum Humidity 89    
Minimum Humidity 57    
Precipitation  
Precipitation 0.00 in - - ()
Sea Level Pressure  
Sea Level Pressure 30.14 in    
Wind  
Wind Speed 10 mph (SSE)    
Max Wind Speed 18 mph    
Max Gust Speed 24 mph    
Visibility 10 miles    
Events      
Averages and records for this station are not official NWS values.
T = Trace of Precipitation, MM = Missing Value Source: NWS Daily Summary

Daily Weather History Graph

Daily Weather History Graph

Search for Another Location

Airport or City:

Trip Planner

Search our weather history database for the weather conditions in past years. The results will help you decide how hot, cold, wet, or windy it might be!

Date:

Astronomy

Mar. 29, 2013 Rise Set
Actual Time 7:18 AM CDT 7:45 PM CDT
Civil Twilight 6:53 AM CDT 8:09 PM CDT
Nautical Twilight 6:24 AM CDT 8:38 PM CDT
Astronomical Twilight 5:55 AM CDT 9:08 PM CDT
Moon 10:34 PM CDT (3/29) 8:38 AM CDT (3/29)
Length of Visible Light 13h 15m
Length of Day
12h 26m
Waning Gibbous, 93% of the Moon is Illuminated
Mar 29
Waning Gibbous
Apr 2
Last Quarter
Apr 10
New
Apr 18
First Quarter
Apr 25
Full

Hourly Weather History & Observations

Time (CDT) Temp. Dew Point Humidity Pressure Visibility Wind Dir Wind Speed Gust Speed Precip Events Conditions
12:15 AM 64.8 °F 55.9 °F 73% 30.16 in 10.0 mi South 9.2 mph - N/A   Overcast
12:35 AM 64.4 °F 55.9 °F 74% 30.16 in 10.0 mi South 8.1 mph - N/A   Overcast
12:55 AM 63.9 °F 55.9 °F 75% 30.16 in 10.0 mi SSE 8.1 mph - N/A   Overcast
1:15 AM 63.0 °F 55.8 °F 77% 30.16 in 10.0 mi SSE 8.1 mph - N/A   Overcast
1:35 AM 62.6 °F 55.8 °F 78% 30.17 in 10.0 mi SSE 6.9 mph - N/A   Overcast
1:55 AM 61.9 °F 55.8 °F 80% 30.16 in 10.0 mi SSE 9.2 mph - N/A   Overcast
2:15 AM 61.7 °F 55.8 °F 81% 30.17 in 10.0 mi South 9.2 mph - N/A   Overcast
2:35 AM 61.7 °F 55.6 °F 80% 30.16 in 10.0 mi SSE 10.4 mph - N/A   Overcast
2:55 AM 61.5 °F 55.4 °F 80% 30.15 in 10.0 mi South 10.4 mph 17.3 mph N/A   Mostly Cloudy
3:15 AM 61.0 °F 55.2 °F 81% 30.16 in 10.0 mi South 10.4 mph 16.1 mph N/A   Mostly Cloudy
3:35 AM 60.8 °F 55.4 °F 82% 30.16 in 10.0 mi South 10.4 mph 18.4 mph N/A   Mostly Cloudy
3:55 AM 60.8 °F 55.0 °F 81% 30.16 in 10.0 mi South 10.4 mph - N/A   Overcast
4:15 AM 60.4 °F 54.9 °F 82% 30.16 in 10.0 mi South 9.2 mph - N/A   Overcast
4:35 AM 60.8 °F 55.4 °F 82% 30.16 in 10.0 mi South 9.2 mph 16.1 mph N/A   Overcast
4:55 AM 60.1 °F 55.0 °F 83% 30.16 in 10.0 mi South 11.5 mph 17.3 mph N/A   Overcast
5:15 AM 59.4 °F 54.9 °F 85% 30.16 in 10.0 mi South 10.4 mph - N/A   Overcast
5:35 AM 59.0 °F 55.4 °F 88% 30.16 in 10.0 mi SSE 9.2 mph - N/A   Overcast
5:55 AM 58.6 °F 54.7 °F 87% 30.16 in 10.0 mi SSE 9.2 mph - N/A   Overcast
6:15 AM 58.5 °F 54.7 °F 87% 30.16 in 10.0 mi SSE 8.1 mph - N/A   Overcast
6:35 AM 58.5 °F 54.7 °F 87% 30.16 in 10.0 mi SSE 10.4 mph - N/A   Overcast
6:55 AM 57.7 °F 54.5 °F 89% 30.17 in 10.0 mi SSE 8.1 mph - N/A   Mostly Cloudy
7:15 AM 58.1 °F 54.5 °F 88% 30.18 in 10.0 mi SSE 8.1 mph - N/A   Overcast
7:35 AM 58.3 °F 54.5 °F 87% 30.18 in 10.0 mi South 9.2 mph - N/A   Overcast
7:55 AM 58.5 °F 54.7 °F 87% 30.20 in 10.0 mi South 6.9 mph - N/A   Overcast
8:15 AM 58.5 °F 54.7 °F 87% 30.20 in 10.0 mi South 5.8 mph - N/A   Overcast
8:35 AM 59.0 °F 54.9 °F 86% 30.21 in 10.0 mi South 5.8 mph - N/A   Overcast
8:55 AM 59.5 °F 55.2 °F 86% 30.21 in 10.0 mi South 8.1 mph - N/A   Overcast
9:15 AM 60.3 °F 55.6 °F 85% 30.21 in 10.0 mi South 10.4 mph - N/A   Overcast
9:35 AM 60.8 °F 55.6 °F 83% 30.21 in 10.0 mi South 10.4 mph - N/A   Overcast
9:55 AM 61.7 °F 55.9 °F 81% 30.21 in 10.0 mi South 8.1 mph - N/A   Overcast
10:15 AM 61.7 °F 56.3 °F 82% 30.21 in 10.0 mi South 6.9 mph - N/A   Overcast
10:35 AM 62.8 °F 56.5 °F 80% 30.20 in 10.0 mi South 8.1 mph - N/A   Overcast
10:55 AM 64.0 °F 57.0 °F 78% 30.20 in 10.0 mi South 8.1 mph - N/A   Overcast
11:15 AM 64.6 °F 57.2 °F 77% 30.20 in 10.0 mi SSW 9.2 mph - N/A   Overcast
11:35 AM 67.3 °F 57.4 °F 70% 30.20 in 10.0 mi SSW 13.8 mph - N/A   Overcast
11:55 AM 68.0 °F 57.2 °F 68% 30.19 in 10.0 mi SSW 12.7 mph 17.3 mph N/A   Overcast
12:15 PM 69.8 °F 57.2 °F 64% 30.19 in 10.0 mi SSW 18.4 mph 24.2 mph N/A   Overcast
12:35 PM 70.2 °F 56.5 °F 62% 30.18 in 10.0 mi SSW 15.0 mph - N/A   Mostly Cloudy
12:55 PM 70.7 °F 56.7 °F 61% 30.17 in 10.0 mi SSW 17.3 mph 21.9 mph N/A   Mostly Cloudy
1:15 PM 71.2 °F 56.8 °F 60% 30.16 in 10.0 mi SSW 13.8 mph - N/A   Mostly Cloudy
1:35 PM 72.0 °F 57.2 °F 60% 30.15 in 10.0 mi SSW 10.4 mph 17.3 mph N/A   Mostly Cloudy
1:55 PM 72.9 °F 57.2 °F 58% 30.14 in 10.0 mi SSW 12.7 mph 19.6 mph N/A   Mostly Cloudy
2:15 PM 72.7 °F 57.0 °F 58% 30.13 in 10.0 mi South 12.7 mph 20.7 mph N/A   Overcast
2:35 PM 73.0 °F 56.8 °F 57% 30.13 in 10.0 mi SSW 11.5 mph 18.4 mph N/A   Mostly Cloudy
2:55 PM 72.9 °F 56.8 °F 57% 30.12 in 10.0 mi SSW 12.7 mph - N/A   Overcast
3:15 PM 72.1 °F 56.3 °F 57% 30.11 in 10.0 mi South 10.4 mph - N/A   Overcast
3:35 PM 72.1 °F 56.5 °F 58% 30.11 in 10.0 mi South 12.7 mph - N/A   Overcast
3:55 PM 71.6 °F 56.1 °F 58% 30.10 in 10.0 mi South 12.7 mph - N/A   Overcast
4:15 PM 71.4 °F 56.3 °F 59% 30.10 in 10.0 mi South 12.7 mph 17.3 mph N/A   Overcast
4:35 PM 71.6 °F 56.3 °F 58% 30.10 in 10.0 mi South 6.9 mph - N/A   Overcast
4:55 PM 71.6 °F 56.3 °F 58% 30.10 in 10.0 mi SSE 10.4 mph - N/A   Overcast
5:15 PM 72.1 °F 56.3 °F 57% 30.10 in 10.0 mi South 11.5 mph 17.3 mph N/A   Overcast
5:35 PM 72.1 °F 56.7 °F 58% 30.09 in 10.0 mi SSE 10.4 mph - N/A   Overcast
5:55 PM 72.0 °F 56.8 °F 59% 30.09 in 10.0 mi SSE 8.1 mph - N/A   Overcast
6:15 PM 71.6 °F 57.0 °F 60% 30.09 in 10.0 mi SE 9.2 mph - N/A   Overcast
6:35 PM 71.1 °F 57.0 °F 61% 30.09 in 10.0 mi SSE 9.2 mph - N/A   Overcast
6:55 PM 71.6 °F 56.3 °F 58% 30.09 in 10.0 mi SE 11.5 mph - N/A   Overcast
7:15 PM 70.7 °F 55.9 °F 59% 30.09 in 10.0 mi SE 11.5 mph - N/A   Overcast
7:35 PM 70.0 °F 55.9 °F 61% 30.08 in 10.0 mi SE 11.5 mph - N/A   Overcast
7:55 PM 69.3 °F 56.3 °F 63% 30.09 in 10.0 mi SE 8.1 mph - N/A   Overcast
8:15 PM 68.9 °F 56.5 °F 65% 30.09 in 10.0 mi SE 6.9 mph - N/A   Overcast
8:35 PM 68.9 °F 56.7 °F 65% 30.10 in 10.0 mi SE 8.1 mph - N/A   Overcast
8:55 PM 68.4 °F 56.8 °F 67% 30.10 in 10.0 mi SE 9.2 mph - N/A   Overcast
9:15 PM 68.4 °F 56.8 °F 67% 30.10 in 10.0 mi SE 10.4 mph - N/A   Overcast
9:35 PM 68.0 °F 57.2 °F 68% 30.11 in 10.0 mi SE 8.1 mph - N/A   Overcast
9:55 PM 67.5 °F 57.2 °F 70% 30.11 in 10.0 mi SE 9.2 mph - N/A   Overcast
10:15 PM 67.1 °F 57.2 °F 70% 30.10 in 10.0 mi SE 10.4 mph - N/A   Overcast
10:35 PM 66.7 °F 57.2 °F 71% 30.10 in 10.0 mi SE 10.4 mph - N/A   Scattered Clouds
10:55 PM 67.1 °F 56.8 °F 70% 30.10 in 10.0 mi SE 10.4 mph - N/A   Scattered Clouds
11:15 PM 67.1 °F 56.7 °F 69% 30.08 in 10.0 mi SE 11.5 mph - N/A   Scattered Clouds
11:35 PM 66.2 °F 57.2 °F 73% 30.07 in 10.0 mi SE 12.7 mph - N/A   Mostly Cloudy
11:55 PM 65.7 °F 57.9 °F 76% 30.04 in 10.0 mi SE 18.4 mph - N/A   Drizzle